Bruno Assis

Scout - Palmeiras
20 Aug 2028
Sonntag
Verarbeitung

Persönlichkeit

Anpassungsfähigkeit (16) Ehrgeiz (1) Kontroverse (1) Loyalität (1) Druck (8) Professionalität (9) Fairness (19) Temperament (16)

Profil

Trainerstil Demokratisch
Lizenz Nationale A
Entschlossenheit 7
Menschenführung 7
Motivation 12
Disziplin 6
Arbeitszufriedenheit
100%
Ermüdung
0%
Rolle Scout
Gehalt 110.3K p/W
Vertrag 14.03.2029

Leistung

Verhalten Gut
Trainingseffektivität
68%
Spielerentwicklung
65%
Verletzungsprävention
30%
Taktische Umsetzung
80%

Letzte Ereignisse

Nahm an einer Scouting-Besprechung teil jetzt
Empfahl ein Transferziel jetzt
Spieler begutachtet jetzt
Spieler begutachtet 7T her
Spieler begutachtet 7T her
Spieler begutachtet 7T her
Spieler begutachtet 7T her
Spieler begutachtet 7T her

Aktuell beobachtet

125
Spieler Verein Status Fähigkeit Vertrauen Beobachtet Zuletzt beobachtet Letzte Stimme
Manu Koné AS Roma Aktiv 171 / 162 40% 3 17.08.2028 -
Odilon Kossounou Atalanta Aktiv 152 / 151 40% 2 17.08.2028 -
Ignace Van Der Brempt Como Aktiv 149 / 135 40% 1 17.08.2028 -
Eivind Helland AC Milan Aktiv 139 / 136 40% 3 16.08.2028 -
Matteo Prati Cagliari Aktiv 146 / 145 40% 1 16.08.2028 -
Antonio Candela Spezia Aktiv 138 / 143 40% 1 16.08.2028 -
Curtis Jones Inter Aktiv 158 / 165 40% 1 13.08.2028 -
Andrea Cambiaso Juventus Aktiv 155 / 156 40% 1 13.08.2028 -
Gabriele Zappa Cagliari Aktiv 141 / 144 40% 1 12.08.2028 -
Morten Frendrup Palermo Aktiv 151 / 154 40% 1 12.08.2028 -
Enrico Delprato Parma Aktiv 154 / 159 40% 1 11.08.2028 -
Rafa Marín Pisa Aktiv 159 / 153 40% 1 11.08.2028 -
Josh Doig Avellino Aktiv 147 / 140 40% 1 10.08.2028 -
Michele Collocolo Cremonese Aktiv 137 / 144 40% 1 10.08.2028 -
Honest Ahanor Atalanta Aktiv 144 / 137 40% 1 10.08.2028 -
Adam Wharton Crystal Palace Aktiv 160 / 170 40% 6 09.08.2028 -
Bafodé Diakité Plymouth Argyle Aktiv 148 / 144 40% 1 09.08.2028 -
Max Johnston Derby County Aktiv 138 / 138 40% 1 09.08.2028 -
Archie Gray Southampton Aktiv 160 / 163 40% 2 08.08.2028 -
Harry Clarke Preston Aktiv 136 / 126 40% 1 08.08.2028 -
Neco Williams Wrexham Aktiv 157 / 152 40% 1 08.08.2028 -
Lamare Bogarde Reading Aktiv 144 / 135 40% 1 07.08.2028 -
Patrick Dorgu Bristol City Aktiv 150 / 157 40% 1 07.08.2028 -
Marco Moreno Bahia Aktiv 127 / 120 86% 1 10.07.2028 Befürworten
Yerson Mosquera Wolverhampton Aktiv 143 / 136 40% 1 04.07.2028 -
Xavi Simons Tottenham Aktiv 164 / 152 40% 2 19.06.2028 -
Jayden Danns Bradford City Aktiv 141 / 145 40% 1 19.06.2028 -
Andrey Santa Cruz Verloren 115 / 108 86% 1 06.06.2028 Befürworten
Giacomo Raspadori Atalanta Aktiv 151 / 161 40% 2 31.05.2028 -
Andrey Santos Bolton Wanderers Aktiv 145 / 140 40% 1 31.05.2028 -
Alex Scott Bournemouth Aktiv 159 / 156 40% 1 31.05.2028 -
Jacques Ekomié Wrexham Aktiv 139 / 128 40% 1 31.05.2028 -
Lucca Ceará Aktiv 121 / 124 42% 1 / 1m 07.07.2027 -
Noussair Mazraoui Manchester United Aktiv 162 / 158 40% 2 31.05.2027 -
James Garner Everton Aktiv 150 / 154 40% 1 31.05.2027 -
Nicolas Jackson Aston Villa Aktiv 150 / 149 40% 1 30.05.2027 -
Chemsdine Talbi Sunderland Aktiv 147 / 155 40% 2 19.05.2027 -
Matheus Araújo Oeste Aktiv 93 / 93 52% 1 / 1m 19.05.2027 -
Jonas Oeste Aktiv 77 / 82 30% 1 / 1m 19.05.2027 -
Gustavo America Mineiro Aktiv 128 / 128 42% 1 / 1m 19.05.2027 -
Kevin Fulham Aktiv 147 / 136 40% 1 17.05.2027 -
Ismaïla Sarr Crystal Palace Aktiv 145 / 134 40% 2 15.05.2027 -
Gabriel Martinelli Arsenal Aktiv 158 / 169 40% 3 15.05.2027 -
Yeremy Pino Crystal Palace Aktiv 148 / 150 40% 1 08.05.2027 -
Iliman N'Diaye Everton Aktiv 164 / 157 40% 1 30.04.2027 -
James Maddison Tottenham Aktiv 157 / 153 40% 1 29.04.2027 -
Boubacar Kamara Aston Villa Aktiv 162 / 174 40% 1 26.04.2027 -
Hugo Ekitiké Liverpool Aktiv 165 / 153 40% 1 17.04.2027 -
David Brooks Bournemouth Aktiv 148 / 128 40% 2 13.04.2027 -
Igor Burnley Aktiv 140 / 156 40% 1 13.04.2027 -
Martin Baturina Como Aktiv 145 / 136 40% 1 13.04.2027 -
Othmane Maamma Watford Aktiv 118 / 123 40% 1 12.04.2027 -
Emiliano Buendía Aston Villa Aktiv 149 / 155 40% 1 12.04.2027 -
Kyle Walker-Peters West Ham United Aktiv 131 / 129 40% 1 11.04.2027 -
Antoni Milambo Brentford Aktiv 139 / 142 40% 1 11.04.2027 -
Harry Wilson Leeds United Aktiv 142 / 139 40% 5 08.04.2027 -
Malcom Al Jazira Aktiv 155 / 141 40% 4 31.03.2027 -
Eddie Nketiah Crystal Palace Aktiv 139 / 134 40% 1 31.03.2027 -
Azor Matusiwa Ipswich Town Aktiv 144 / 135 40% 1 30.03.2027 -
Andreas Schjelderup Benfica Aktiv 146 / 142 40% 2 21.03.2027 -
Yoane Wissa Newcastle United Aktiv 141 / 148 40% 2 21.03.2027 -
Pepê Porto Aktiv 141 / 137 40% 1 21.03.2027 -
Pau Víctor Braga Aktiv 135 / 131 40% 4 19.03.2027 -
Lovro Zvonarek Estrela da Amadora Aktiv 130 / 129 40% 2 14.03.2027 -
Iván Fresneda Sporting CP Aktiv 137 / 150 40% 1 14.03.2027 -
Hwang In-Beom Porto Aktiv 141 / 141 40% 3 12.03.2027 -
Václav Černý Besiktas Aktiv 141 / 122 40% 1 12.03.2027 -
Alberto Costa Porto Aktiv 146 / 151 40% 7 07.03.2027 -
Gianluca Prestianni Benfica Aktiv 130 / 132 40% 2 27.02.2027 -
Samuel Dahl Benfica Aktiv 133 / 130 40% 1 27.02.2027 -
Luís Guilherme Sporting CP Aktiv 129 / 125 40% 2 26.02.2027 -
Florentino Luís Ipswich Town Aktiv 136 / 139 40% 2 26.02.2027 -
Agustín Palavecino Cruz Azul Aktiv 131 / 144 40% 2 16.02.2027 -
Pablo Rosario Porto Aktiv 139 / 128 40% 1 13.02.2027 -
Enzo Barrenechea Benfica Aktiv 154 / 159 40% 11 30.11.2026 -
Geny Sporting CP Aktiv 138 / 158 40% 2 30.11.2026 -
Eduardo Quaresma Sporting CP Aktiv 135 / 130 40% 4 29.11.2026 -
Leandro Barreiro Benfica Aktiv 141 / 135 40% 1 29.11.2026 -
Victor Froholdt Porto Aktiv 155 / 171 40% 5 28.11.2026 -
Hákon Arnar Haraldsson LOSC Lille Aktiv 153 / 151 40% 1 28.11.2026 -
Nordi Mukiele Sunderland Aktiv 139 / 138 40% 2 27.11.2026 -
Brais Méndez RC Lens Aktiv 148 / 146 40% 5 23.11.2026 -
Oscar Al-Taawoun Aktiv 144 / 151 40% 2 23.11.2026 -
Keane Lewis-Potter Brentford Aktiv 142 / 153 40% 1 22.11.2026 -
Rico Henry River Plate Aktiv 137 / 147 40% 6 21.11.2026 -
Sofiane Diop OGC Nice Aktiv 137 / 155 40% 2 18.11.2026 -
Roméo Lavia Chelsea Aktiv 150 / 165 40% 1 18.11.2026 -
Marcos Antonio Sport Recife Aktiv 134 / 135 40% 1 16.11.2026 -
Jake O'Brien Everton Aktiv 143 / 143 40% 1 15.11.2026 -
Ritsu Doan Gamba Osaka Aktiv 154 / 130 40% 2 13.11.2026 -
Tristan Degreef Anderlecht Aktiv 123 / 134 40% 1 13.11.2026 -
Roberto Fernández Braga Aktiv 140 / 154 40% 2 10.11.2026 -
Víctor Gómez Braga Aktiv 133 / 134 40% 2 09.11.2026 -
Ryan Sessegnon Fulham Aktiv 145 / 130 40% 1 08.11.2026 -
Yunus Akgün Galatasaray Aktiv 138 / 156 40% 1 05.11.2026 -
Joe Gomez Liverpool Aktiv 155 / 143 40% 2 04.11.2026 -
Zeno Debast Sporting CP Aktiv 145 / 153 40% 2 04.11.2026 -
Gabriel Gudmundsson Leeds United Aktiv 140 / 150 40% 1 30.10.2026 -
António Silva Bournemouth Aktiv 146 / 157 40% 2 27.10.2026 -
Ainsley Maitland-Niles Everton Aktiv 144 / 147 40% 1 27.10.2026 -
Ibrahim Sangaré Nottingham Forest Aktiv 148 / 162 40% 1 27.10.2026 -
Pau Torres Aston Villa Aktiv 155 / 135 40% 1 18.10.2026 -
Lucas Paquetá Flamengo Aktiv 137 / 129 40% 1 18.10.2026 -
Sepp van den Berg Brentford Aktiv 152 / 156 40% 1 18.10.2026 -
Nathan Collins Brentford Aktiv 140 / 151 40% 2 14.10.2026 -
Takehiro Tomiyasu Crystal Palace Aktiv 136 / 145 40% 1 14.10.2026 -
Nehuén Pérez Porto Aktiv 144 / 154 40% 1 12.10.2026 -
Amine Adli Bournemouth Aktiv 139 / 148 40% 1 12.10.2026 -
Sergi Altimira Sporting CP Aktiv 135 / 122 40% 1 10.10.2026 -
Lisandro Martínez Ajax Aktiv 153 / 161 40% 2 06.10.2026 -
Martinelli Fluminense Aktiv 137 / 134 40% 1 06.10.2026 -
Cristian Uribe Monaco Aktiv 157 / 134 40% 1 02.10.2026 -
Xaver Schlager Nottingham Forest Aktiv 157 / 160 40% 1 29.09.2026 -
Tomás Araújo Benfica Aktiv 147 / 132 40% 1 28.09.2026 -
Ousmane Diomande Nottingham Forest Aktiv 142 / 155 40% 1 28.09.2026 -
Pedro Porro Tottenham Aktiv 142 / 135 40% 1 23.09.2026 -
Dodi Lukébakio Benfica Aktiv 139 / 156 40% 1 17.09.2026 -
Amin Boudri Los Angeles Football Club Aktiv 114 / 139 40% 1 20.08.2026 -
Malo Gusto Chelsea Aktiv 137 / 132 40% 1 17.08.2026 -
Tino Livramento Newcastle United Aktiv 144 / 156 40% 1 17.08.2026 -
Jorge De Frutos Rayo Vallecano Aktiv 138 / 161 40% 1 07.08.2026 -
Fran García Betis Aktiv 141 / 127 40% 1 06.08.2026 -
Matty Cash Aston Villa Aktiv 148 / 142 40% 1 04.08.2026 -
Mikel Oyarzábal Real Sociedad Aktiv 158 / 151 40% 1 04.08.2026 -
Robin Roefs Sunderland Aktiv 146 / 124 40% 1 02.08.2026 -